Heuvelton, New York
Current Conditions -  °F | °C
As of 2:53 AM on Monday 24 Nov 2014 (Local Time) from KMSS Reporting Station
Few Clouds Few Clouds  
Wind Chill: 44°   Ceiling: Unl
Heat Index: 47°   Visibility: 10mi
Dew Point: 39°   Wind: 7mph
Humidity: 74%   Direction: 80°E
Pressure: 29.69"   Gusts: NA
Location:  44.62°N, 75.41°W
Report Text: KMSS 240753Z AUTO 08006KT 10SM FEW110 08/04 A2969 RMK AO2 PRESFR SLP056 T00830039
Loading
Personal Weather Stations






























Interactive Weather Map New forecast layout! Learn more

10-Day Weather Forecast

Advertisements
Track Severe Weather on mobile